Archival Weather

Nairobi Jkia

Nairobi Jkia, Kenya (HKJK)

Report from: Sunday, March 19, 2023 11:00 AM EAT
Current time: Tuesday, February 27, 2024 12:46 PM EAT

Current weather – Weather history – Daily summaries
Weather forecast

Temperature22.0°C (71.6°F)
Dew point12.0°C (53.6°F)
Winds 10 kts (5.1 m/s, 11.5 mph) Vrb
Winds variableWinds variable from North-Northeast (20°) to East (80°)
Visibility6.2 mi. (10 km)
Clouds Scattered clouds 2,400 ft. (732 m)
Ceiling: Overcast 24,000 ft. (7,315 m)
Altimeter30.18 in.Hg (1022 mB)
Relative humidity53 %
Density altitude719 ft. (219 m)
Remarks No significant changes expected in the next two hours
Flight conditions Visual Meteorological Conditions
Raw dataHKJK 190800Z 05010KT 020V080 9999 SCT024 OVC240 22/12 Q1022 NOSIG
An error has occurred. This application may no longer respond until reloaded. Reload 🗙